sensor_id;sensor_type;location;lat;lon;timestamp;temperature;humidity
6824;DHT22;58633;49.470;11.004;2024-01-16T00:01:12;0.60;70.80
6824;DHT22;58633;49.470;11.004;2024-01-16T00:03:38;1.00;70.70
6824;DHT22;58633;49.470;11.004;2024-01-16T00:06:03;1.10;71.10
6824;DHT22;58633;49.470;11.004;2024-01-16T00:08:29;0.70;70.60
6824;DHT22;58633;49.470;11.004;2024-01-16T00:13:21;0.70;70.30
6824;DHT22;58633;49.470;11.004;2024-01-16T00:15:46;0.70;70.80
6824;DHT22;58633;49.470;11.004;2024-01-16T00:18:11;0.60;70.70
6824;DHT22;58633;49.470;11.004;2024-01-16T00:20:37;0.60;70.80
6824;DHT22;58633;49.470;11.004;2024-01-16T00:23:03;0.10;69.80
6824;DHT22;58633;49.470;11.004;2024-01-16T00:25:28;0.60;70.50
6824;DHT22;58633;49.470;11.004;2024-01-16T00:27:55;1.50;70.80
6824;DHT22;58633;49.470;11.004;2024-01-16T00:30:20;0.70;70.20
6824;DHT22;58633;49.470;11.004;2024-01-16T00:32:46;0.60;70.60
6824;DHT22;58633;49.470;11.004;2024-01-16T00:35:12;0.70;70.70
6824;DHT22;58633;49.470;11.004;2024-01-16T00:40:04;0.70;70.20
6824;DHT22;58633;49.470;11.004;2024-01-16T00:42:30;1.30;70.60
6824;DHT22;58633;49.470;11.004;2024-01-16T00:44:57;0.60;70.30
6824;DHT22;58633;49.470;11.004;2024-01-16T00:47:23;0.50;69.80
6824;DHT22;58633;49.470;11.004;2024-01-16T00:49:48;0.60;70.20
6824;DHT22;58633;49.470;11.004;2024-01-16T00:52:14;0.60;70.20
6824;DHT22;58633;49.470;11.004;2024-01-16T00:54:40;0.60;70.20
6824;DHT22;58633;49.470;11.004;2024-01-16T00:57:07;0.60;70.10
6824;DHT22;58633;49.470;11.004;2024-01-16T00:59:32;0.70;70.10
6824;DHT22;58633;49.470;11.004;2024-01-16T01:01:58;0.60;69.80
6824;DHT22;58633;49.470;11.004;2024-01-16T01:04:24;0.60;69.80
6824;DHT22;58633;49.470;11.004;2024-01-16T01:06:49;0.60;69.40
6824;DHT22;58633;49.470;11.004;2024-01-16T01:09:16;0.80;69.80
6824;DHT22;58633;49.470;11.004;2024-01-16T01:14:08;1.00;70.10
6824;DHT22;58633;49.470;11.004;2024-01-16T01:16:33;0.50;70.00
6824;DHT22;58633;49.470;11.004;2024-01-16T01:18:59;0.40;69.60
6824;DHT22;58633;49.470;11.004;2024-01-16T01:23:50;0.00;69.40
6824;DHT22;58633;49.470;11.004;2024-01-16T01:26:16;1.30;70.40
6824;DHT22;58633;49.470;11.004;2024-01-16T01:28:45;0.50;70.10
6824;DHT22;58633;49.470;11.004;2024-01-16T01:31:11;0.50;70.30
6824;DHT22;58633;49.470;11.004;2024-01-16T01:33:39;0.60;70.20
6824;DHT22;58633;49.470;11.004;2024-01-16T01:36:04;0.60;70.20
6824;DHT22;58633;49.470;11.004;2024-01-16T01:38:30;0.50;70.40
6824;DHT22;58633;49.470;11.004;2024-01-16T01:40:56;0.60;70.40
6824;DHT22;58633;49.470;11.004;2024-01-16T01:43:23;1.40;70.50
6824;DHT22;58633;49.470;11.004;2024-01-16T01:46:28;0.80;70.10
6824;DHT22;58633;49.470;11.004;2024-01-16T01:48:55;0.50;70.10
6824;DHT22;58633;49.470;11.004;2024-01-16T01:53:48;0.40;69.90
6824;DHT22;58633;49.470;11.004;2024-01-16T01:56:17;1.30;70.60
6824;DHT22;58633;49.470;11.004;2024-01-16T01:58:44;0.60;70.10
6824;DHT22;58633;49.470;11.004;2024-01-16T02:01:11;0.70;70.00
6824;DHT22;58633;49.470;11.004;2024-01-16T02:03:44;0.60;70.40
6824;DHT22;58633;49.470;11.004;2024-01-16T02:06:11;0.50;70.10
6824;DHT22;58633;49.470;11.004;2024-01-16T02:08:38;0.70;70.10
6824;DHT22;58633;49.470;11.004;2024-01-16T02:11:03;0.10;69.40
6824;DHT22;58633;49.470;11.004;2024-01-16T02:13:29;0.80;70.00
6824;DHT22;58633;49.470;11.004;2024-01-16T02:15:55;0.40;70.00
6824;DHT22;58633;49.470;11.004;2024-01-16T02:20:47;0.40;69.90
6824;DHT22;58633;49.470;11.004;2024-01-16T02:23:14;0.50;70.00
6824;DHT22;58633;49.470;11.004;2024-01-16T02:25:41;0.40;70.30
6824;DHT22;58633;49.470;11.004;2024-01-16T02:28:07;1.00;70.50
6824;DHT22;58633;49.470;11.004;2024-01-16T02:30:33;0.30;70.30
6824;DHT22;58633;49.470;11.004;2024-01-16T02:32:59;1.40;71.90
6824;DHT22;58633;49.470;11.004;2024-01-16T02:35:24;0.60;71.60
6824;DHT22;58633;49.470;11.004;2024-01-16T02:37:50;0.60;71.10
6824;DHT22;58633;49.470;11.004;2024-01-16T02:42:41;0.30;69.50
6824;DHT22;58633;49.470;11.004;2024-01-16T02:45:07;1.40;71.00
6824;DHT22;58633;49.470;11.004;2024-01-16T02:47:33;0.40;70.50
6824;DHT22;58633;49.470;11.004;2024-01-16T02:50:00;0.20;70.00
6824;DHT22;58633;49.470;11.004;2024-01-16T02:52:26;1.10;70.80
6824;DHT22;58633;49.470;11.004;2024-01-16T02:54:52;0.50;70.60
6824;DHT22;58633;49.470;11.004;2024-01-16T02:57:18;0.60;70.20
6824;DHT22;58633;49.470;11.004;2024-01-16T02:59:44;0.40;70.50
6824;DHT22;58633;49.470;11.004;2024-01-16T03:02:09;0.50;70.60
6824;DHT22;58633;49.470;11.004;2024-01-16T03:04:35;-0.30;69.20
6824;DHT22;58633;49.470;11.004;2024-01-16T03:07:01;0.30;69.80
6824;DHT22;58633;49.470;11.004;2024-01-16T03:09:26;0.30;70.30
6824;DHT22;58633;49.470;11.004;2024-01-16T03:11:52;1.20;70.60
6824;DHT22;58633;49.470;11.004;2024-01-16T03:14:17;0.90;70.40
6824;DHT22;58633;49.470;11.004;2024-01-16T03:16:43;0.40;70.30
6824;DHT22;58633;49.470;11.004;2024-01-16T03:19:09;0.40;70.30
6824;DHT22;58633;49.470;11.004;2024-01-16T03:21:35;1.10;70.50
6824;DHT22;58633;49.470;11.004;2024-01-16T03:24:00;0.80;70.10
6824;DHT22;58633;49.470;11.004;2024-01-16T03:26:26;-2.40;67.30
6824;DHT22;58633;49.470;11.004;2024-01-16T03:28:51;0.20;69.80
6824;DHT22;58633;49.470;11.004;2024-01-16T03:31:17;0.30;69.80
6824;DHT22;58633;49.470;11.004;2024-01-16T03:33:44;1.20;70.80
6824;DHT22;58633;49.470;11.004;2024-01-16T03:36:10;0.20;70.20
6824;DHT22;58633;49.470;11.004;2024-01-16T03:38:38;0.60;70.20
6824;DHT22;58633;49.470;11.004;2024-01-16T03:41:04;0.40;70.40
6824;DHT22;58633;49.470;11.004;2024-01-16T03:43:32;0.50;70.20
6824;DHT22;58633;49.470;11.004;2024-01-16T03:45:58;0.20;70.30
6824;DHT22;58633;49.470;11.004;2024-01-16T03:48:24;0.20;70.40
6824;DHT22;58633;49.470;11.004;2024-01-16T03:50:49;0.30;70.40
6824;DHT22;58633;49.470;11.004;2024-01-16T03:53:15;0.20;70.40
6824;DHT22;58633;49.470;11.004;2024-01-16T03:55:40;0.30;70.60
6824;DHT22;58633;49.470;11.004;2024-01-16T03:58:06;1.10;71.10
6824;DHT22;58633;49.470;11.004;2024-01-16T04:00:31;0.20;70.70
6824;DHT22;58633;49.470;11.004;2024-01-16T04:02:57;0.30;70.80
6824;DHT22;58633;49.470;11.004;2024-01-16T04:07:48;0.80;70.70
6824;DHT22;58633;49.470;11.004;2024-01-16T04:10:14;0.40;70.70
6824;DHT22;58633;49.470;11.004;2024-01-16T04:15:06;0.30;70.30
6824;DHT22;58633;49.470;11.004;2024-01-16T04:17:32;0.40;70.70
6824;DHT22;58633;49.470;11.004;2024-01-16T04:19:57;0.60;70.50
6824;DHT22;58633;49.470;11.004;2024-01-16T04:22:23;0.90;70.70
6824;DHT22;58633;49.470;11.004;2024-01-16T04:24:48;0.30;70.60
6824;DHT22;58633;49.470;11.004;2024-01-16T04:27:14;0.20;70.10
6824;DHT22;58633;49.470;11.004;2024-01-16T04:29:40;1.30;71.10
6824;DHT22;58633;49.470;11.004;2024-01-16T04:32:05;0.50;70.20
6824;DHT22;58633;49.470;11.004;2024-01-16T04:34:31;-0.20;69.70
6824;DHT22;58633;49.470;11.004;2024-01-16T04:39:22;0.80;70.70
6824;DHT22;58633;49.470;11.004;2024-01-16T04:41:51;0.30;70.60
6824;DHT22;58633;49.470;11.004;2024-01-16T04:44:17;0.20;70.50
6824;DHT22;58633;49.470;11.004;2024-01-16T04:46:42;0.50;70.30
6824;DHT22;58633;49.470;11.004;2024-01-16T04:49:08;0.00;69.70
6824;DHT22;58633;49.470;11.004;2024-01-16T04:51:33;0.60;70.10
6824;DHT22;58633;49.470;11.004;2024-01-16T04:53:59;0.30;70.00
6824;DHT22;58633;49.470;11.004;2024-01-16T04:58:51;0.30;70.20
6824;DHT22;58633;49.470;11.004;2024-01-16T05:03:43;0.30;70.10
6824;DHT22;58633;49.470;11.004;2024-01-16T05:06:13;0.20;70.60
6824;DHT22;58633;49.470;11.004;2024-01-16T05:08:40;0.30;70.70
6824;DHT22;58633;49.470;11.004;2024-01-16T05:11:05;0.30;70.70
6824;DHT22;58633;49.470;11.004;2024-01-16T05:13:31;0.30;70.70
6824;DHT22;58633;49.470;11.004;2024-01-16T05:15:56;0.90;70.80
6824;DHT22;58633;49.470;11.004;2024-01-16T05:18:22;0.40;70.80
6824;DHT22;58633;49.470;11.004;2024-01-16T05:20:47;0.30;70.20
6824;DHT22;58633;49.470;11.004;2024-01-16T05:23:13;0.30;70.60
6824;DHT22;58633;49.470;11.004;2024-01-16T05:25:38;0.20;70.60
6824;DHT22;58633;49.470;11.004;2024-01-16T05:28:04;0.70;70.40
6824;DHT22;58633;49.470;11.004;2024-01-16T05:30:30;0.30;70.50
6824;DHT22;58633;49.470;11.004;2024-01-16T05:32:55;0.60;70.80
6824;DHT22;58633;49.470;11.004;2024-01-16T05:35:21;0.30;70.70
6824;DHT22;58633;49.470;11.004;2024-01-16T05:37:47;0.20;70.50
6824;DHT22;58633;49.470;11.004;2024-01-16T05:40:13;0.00;70.40
6824;DHT22;58633;49.470;11.004;2024-01-16T05:42:38;0.60;70.60
6824;DHT22;58633;49.470;11.004;2024-01-16T05:45:04;0.20;70.60
6824;DHT22;58633;49.470;11.004;2024-01-16T05:47:30;0.20;70.20
6824;DHT22;58633;49.470;11.004;2024-01-16T05:49:56;0.20;70.30
6824;DHT22;58633;49.470;11.004;2024-01-16T05:54:48;0.20;70.20
6824;DHT22;58633;49.470;11.004;2024-01-16T05:57:13;0.20;70.40
6824;DHT22;58633;49.470;11.004;2024-01-16T05:59:39;0.10;70.80
6824;DHT22;58633;49.470;11.004;2024-01-16T06:02:05;0.10;70.80
6824;DHT22;58633;49.470;11.004;2024-01-16T06:04:30;0.10;70.60
6824;DHT22;58633;49.470;11.004;2024-01-16T06:06:56;-0.10;70.50
6824;DHT22;58633;49.470;11.004;2024-01-16T06:09:21;0.00;70.90
6824;DHT22;58633;49.470;11.004;2024-01-16T06:11:47;0.40;70.90
6824;DHT22;58633;49.470;11.004;2024-01-16T06:14:13;-0.10;70.80
6824;DHT22;58633;49.470;11.004;2024-01-16T06:16:39;0.00;70.90
6824;DHT22;58633;49.470;11.004;2024-01-16T06:19:04;0.10;71.20
6824;DHT22;58633;49.470;11.004;2024-01-16T06:21:30;0.00;71.10
6824;DHT22;58633;49.470;11.004;2024-01-16T06:23:56;0.50;70.90
6824;DHT22;58633;49.470;11.004;2024-01-16T06:26:21;-0.10;70.30
6824;DHT22;58633;49.470;11.004;2024-01-16T06:28:47;-0.10;70.40
6824;DHT22;58633;49.470;11.004;2024-01-16T06:31:12;-0.10;70.50
6824;DHT22;58633;49.470;11.004;2024-01-16T06:33:38;0.30;71.20
6824;DHT22;58633;49.470;11.004;2024-01-16T06:36:04;-0.40;70.00
6824;DHT22;58633;49.470;11.004;2024-01-16T06:38:30;0.10;70.20
6824;DHT22;58633;49.470;11.004;2024-01-16T06:40:56;0.20;70.80
6824;DHT22;58633;49.470;11.004;2024-01-16T06:43:23;0.20;70.70
6824;DHT22;58633;49.470;11.004;2024-01-16T06:45:49;-0.30;70.20
6824;DHT22;58633;49.470;11.004;2024-01-16T06:48:14;0.00;70.90
6824;DHT22;58633;49.470;11.004;2024-01-16T06:50:41;0.20;71.00
6824;DHT22;58633;49.470;11.004;2024-01-16T06:53:06;0.20;70.80
6824;DHT22;58633;49.470;11.004;2024-01-16T06:55:32;0.00;71.00
6824;DHT22;58633;49.470;11.004;2024-01-16T06:57:58;-0.10;70.60
6824;DHT22;58633;49.470;11.004;2024-01-16T07:00:23;0.20;71.40
6824;DHT22;58633;49.470;11.004;2024-01-16T07:02:52;0.10;71.20
6824;DHT22;58633;49.470;11.004;2024-01-16T07:05:17;0.00;71.20
6824;DHT22;58633;49.470;11.004;2024-01-16T07:07:43;0.60;71.40
6824;DHT22;58633;49.470;11.004;2024-01-16T07:10:08;0.10;71.40
6824;DHT22;58633;49.470;11.004;2024-01-16T07:12:39;0.20;71.40
6824;DHT22;58633;49.470;11.004;2024-01-16T07:15:04;0.10;71.10
6824;DHT22;58633;49.470;11.004;2024-01-16T07:17:30;0.20;70.60
6824;DHT22;58633;49.470;11.004;2024-01-16T07:19:56;-0.30;70.10
6824;DHT22;58633;49.470;11.004;2024-01-16T07:22:22;0.60;71.10
6824;DHT22;58633;49.470;11.004;2024-01-16T07:24:47;0.70;71.10
6824;DHT22;58633;49.470;11.004;2024-01-16T07:32:06;0.10;70.40
6824;DHT22;58633;49.470;11.004;2024-01-16T07:34:31;0.20;71.30
6824;DHT22;58633;49.470;11.004;2024-01-16T07:36:57;0.20;71.10
6824;DHT22;58633;49.470;11.004;2024-01-16T07:39:22;0.20;71.50
6824;DHT22;58633;49.470;11.004;2024-01-16T07:41:48;0.30;71.30
6824;DHT22;58633;49.470;11.004;2024-01-16T07:44:14;0.30;71.10
6824;DHT22;58633;49.470;11.004;2024-01-16T07:46:39;0.40;71.20
6824;DHT22;58633;49.470;11.004;2024-01-16T07:49:05;0.40;71.30
6824;DHT22;58633;49.470;11.004;2024-01-16T07:51:31;1.00;71.70
6824;DHT22;58633;49.470;11.004;2024-01-16T07:54:08;1.30;70.90
6824;DHT22;58633;49.470;11.004;2024-01-16T07:56:34;0.90;70.40
6824;DHT22;58633;49.470;11.004;2024-01-16T07:59:00;1.30;70.70
6824;DHT22;58633;49.470;11.004;2024-01-16T08:01:29;0.60;70.50
6824;DHT22;58633;49.470;11.004;2024-01-16T08:03:55;0.60;70.50
6824;DHT22;58633;49.470;11.004;2024-01-16T08:06:21;0.40;69.90
6824;DHT22;58633;49.470;11.004;2024-01-16T08:08:47;1.00;70.40
6824;DHT22;58633;49.470;11.004;2024-01-16T08:11:14;0.60;70.50
6824;DHT22;58633;49.470;11.004;2024-01-16T08:13:39;0.60;70.40
6824;DHT22;58633;49.470;11.004;2024-01-16T08:16:05;0.80;70.10
6824;DHT22;58633;49.470;11.004;2024-01-16T08:18:30;0.70;70.30
6824;DHT22;58633;49.470;11.004;2024-01-16T08:20:59;0.60;70.00
6824;DHT22;58633;49.470;11.004;2024-01-16T08:23:25;0.80;70.10
6824;DHT22;58633;49.470;11.004;2024-01-16T08:25:50;1.20;69.70
6824;DHT22;58633;49.470;11.004;2024-01-16T08:28:17;0.70;69.60
6824;DHT22;58633;49.470;11.004;2024-01-16T08:30:43;0.70;69.70
6824;DHT22;58633;49.470;11.004;2024-01-16T08:33:09;0.70;69.70
6824;DHT22;58633;49.470;11.004;2024-01-16T08:35:34;0.60;69.40
6824;DHT22;58633;49.470;11.004;2024-01-16T08:40:26;0.90;69.10
6824;DHT22;58633;49.470;11.004;2024-01-16T08:42:52;0.60;69.30
6824;DHT22;58633;49.470;11.004;2024-01-16T08:47:46;0.70;68.70
6824;DHT22;58633;49.470;11.004;2024-01-16T08:50:12;0.60;69.10
6824;DHT22;58633;49.470;11.004;2024-01-16T08:52:37;1.10;68.70
6824;DHT22;58633;49.470;11.004;2024-01-16T08:55:03;1.50;69.50
6824;DHT22;58633;49.470;11.004;2024-01-16T08:57:29;0.90;69.30
6824;DHT22;58633;49.470;11.004;2024-01-16T08:59:55;1.10;68.80
6824;DHT22;58633;49.470;11.004;2024-01-16T09:02:20;1.00;69.10
6824;DHT22;58633;49.470;11.004;2024-01-16T09:04:47;1.00;68.70
6824;DHT22;58633;49.470;11.004;2024-01-16T09:07:13;2.10;69.80
6824;DHT22;58633;49.470;11.004;2024-01-16T09:09:42;1.00;68.60
6824;DHT22;58633;49.470;11.004;2024-01-16T09:12:09;1.40;68.40
6824;DHT22;58633;49.470;11.004;2024-01-16T09:14:34;1.10;68.50
6824;DHT22;58633;49.470;11.004;2024-01-16T09:17:00;1.00;68.30
6824;DHT22;58633;49.470;11.004;2024-01-16T09:19:26;1.00;68.30
6824;DHT22;58633;49.470;11.004;2024-01-16T09:21:51;1.80;68.60
6824;DHT22;58633;49.470;11.004;2024-01-16T09:24:20;1.10;68.10
6824;DHT22;58633;49.470;11.004;2024-01-16T09:26:46;1.80;68.90
6824;DHT22;58633;49.470;11.004;2024-01-16T09:29:12;2.00;68.90
6824;DHT22;58633;49.470;11.004;2024-01-16T09:31:37;1.20;67.80
6824;DHT22;58633;49.470;11.004;2024-01-16T09:34:04;1.30;68.10
6824;DHT22;58633;49.470;11.004;2024-01-16T09:36:30;1.30;67.60
6824;DHT22;58633;49.470;11.004;2024-01-16T09:38:55;1.30;68.00
6824;DHT22;58633;49.470;11.004;2024-01-16T09:41:21;1.10;67.50
6824;DHT22;58633;49.470;11.004;2024-01-16T09:43:47;1.70;67.80
6824;DHT22;58633;49.470;11.004;2024-01-16T09:46:15;1.30;67.80
6824;DHT22;58633;49.470;11.004;2024-01-16T09:48:41;1.70;67.60
6824;DHT22;58633;49.470;11.004;2024-01-16T09:51:09;1.30;67.70
6824;DHT22;58633;49.470;11.004;2024-01-16T09:53:34;1.40;67.10
6824;DHT22;58633;49.470;11.004;2024-01-16T09:56:02;3.50;69.50
6824;DHT22;58633;49.470;11.004;2024-01-16T09:58:34;1.30;67.30
6824;DHT22;58633;49.470;11.004;2024-01-16T10:01:01;1.30;67.40
6824;DHT22;58633;49.470;11.004;2024-01-16T10:03:27;1.30;67.30
6824;DHT22;58633;49.470;11.004;2024-01-16T10:05:56;1.80;67.30
6824;DHT22;58633;49.470;11.004;2024-01-16T10:08:21;1.40;67.30
6824;DHT22;58633;49.470;11.004;2024-01-16T10:10:47;1.50;67.30
6824;DHT22;58633;49.470;11.004;2024-01-16T10:13:14;1.30;66.60
6824;DHT22;58633;49.470;11.004;2024-01-16T10:15:40;1.60;66.30
6824;DHT22;58633;49.470;11.004;2024-01-16T10:18:05;1.40;66.60
6824;DHT22;58633;49.470;11.004;2024-01-16T10:20:46;1.40;66.50
6824;DHT22;58633;49.470;11.004;2024-01-16T10:23:25;1.30;66.40
6824;DHT22;58633;49.470;11.004;2024-01-16T10:26:05;1.30;66.50
6824;DHT22;58633;49.470;11.004;2024-01-16T10:28:30;1.30;66.40
6824;DHT22;58633;49.470;11.004;2024-01-16T10:31:04;1.30;67.00
6824;DHT22;58633;49.470;11.004;2024-01-16T10:33:30;1.40;66.50
6824;DHT22;58633;49.470;11.004;2024-01-16T10:36:12;1.40;66.40
6824;DHT22;58633;49.470;11.004;2024-01-16T10:38:43;1.50;66.30
6824;DHT22;58633;49.470;11.004;2024-01-16T10:41:16;1.50;66.70
6824;DHT22;58633;49.470;11.004;2024-01-16T10:43:42;1.20;66.30
6824;DHT22;58633;49.470;11.004;2024-01-16T10:46:16;1.40;66.40
6824;DHT22;58633;49.470;11.004;2024-01-16T10:48:59;1.40;66.20
6824;DHT22;58633;49.470;11.004;2024-01-16T10:51:27;1.40;66.10
6824;DHT22;58633;49.470;11.004;2024-01-16T10:54:04;1.30;66.00
6824;DHT22;58633;49.470;11.004;2024-01-16T10:56:33;1.30;66.00
6824;DHT22;58633;49.470;11.004;2024-01-16T11:01:37;1.40;65.70
6824;DHT22;58633;49.470;11.004;2024-01-16T11:04:04;1.30;65.40
6824;DHT22;58633;49.470;11.004;2024-01-16T11:06:30;1.40;66.00
6824;DHT22;58633;49.470;11.004;2024-01-16T11:08:57;1.20;65.70
6824;DHT22;58633;49.470;11.004;2024-01-16T11:11:24;1.50;66.20
6824;DHT22;58633;49.470;11.004;2024-01-16T11:13:51;1.50;66.30
6824;DHT22;58633;49.470;11.004;2024-01-16T11:16:21;1.70;66.80
6824;DHT22;58633;49.470;11.004;2024-01-16T11:18:48;4.50;68.40
6824;DHT22;58633;49.470;11.004;2024-01-16T11:21:14;5.50;68.70
6824;DHT22;58633;49.470;11.004;2024-01-16T11:26:29;1.90;64.30
6824;DHT22;58633;49.470;11.004;2024-01-16T11:28:58;1.90;64.50
6824;DHT22;58633;49.470;11.004;2024-01-16T11:31:28;1.80;64.20
6824;DHT22;58633;49.470;11.004;2024-01-16T11:33:54;1.90;64.20
6824;DHT22;58633;49.470;11.004;2024-01-16T11:39:07;2.00;63.70
6824;DHT22;58633;49.470;11.004;2024-01-16T11:41:56;2.40;63.60
6824;DHT22;58633;49.470;11.004;2024-01-16T11:44:46;2.10;63.90
6824;DHT22;58633;49.470;11.004;2024-01-16T11:47:19;2.20;63.90
6824;DHT22;58633;49.470;11.004;2024-01-16T11:49:49;2.80;63.50
6824;DHT22;58633;49.470;11.004;2024-01-16T11:52:15;2.30;63.50
6824;DHT22;58633;49.470;11.004;2024-01-16T11:55:00;2.40;62.80
6824;DHT22;58633;49.470;11.004;2024-01-16T11:57:36;2.50;63.30
6824;DHT22;58633;49.470;11.004;2024-01-16T12:00:19;2.40;63.00
6824;DHT22;58633;49.470;11.004;2024-01-16T12:05:11;2.80;63.00
6824;DHT22;58633;49.470;11.004;2024-01-16T12:07:50;3.10;62.10
6824;DHT22;58633;49.470;11.004;2024-01-16T12:10:17;2.90;62.40
6824;DHT22;58633;49.470;11.004;2024-01-16T12:12:43;2.90;62.10
6824;DHT22;58633;49.470;11.004;2024-01-16T12:15:22;3.60;62.20
6824;DHT22;58633;49.470;11.004;2024-01-16T12:20:22;2.80;61.30
6824;DHT22;58633;49.470;11.004;2024-01-16T12:25:20;2.70;61.40
6824;DHT22;58633;49.470;11.004;2024-01-16T12:27:53;2.70;61.00
6824;DHT22;58633;49.470;11.004;2024-01-16T12:30:19;2.70;60.80
6824;DHT22;58633;49.470;11.004;2024-01-16T12:32:44;2.80;60.90
6824;DHT22;58633;49.470;11.004;2024-01-16T12:35:10;3.00;60.80
6824;DHT22;58633;49.470;11.004;2024-01-16T12:37:35;3.00;60.80
6824;DHT22;58633;49.470;11.004;2024-01-16T12:40:01;3.10;60.50
6824;DHT22;58633;49.470;11.004;2024-01-16T12:42:27;3.00;60.30
6824;DHT22;58633;49.470;11.004;2024-01-16T12:44:53;3.30;61.00
6824;DHT22;58633;49.470;11.004;2024-01-16T12:47:19;3.00;60.60
6824;DHT22;58633;49.470;11.004;2024-01-16T12:49:46;3.10;59.90
6824;DHT22;58633;49.470;11.004;2024-01-16T12:52:17;3.10;59.60
6824;DHT22;58633;49.470;11.004;2024-01-16T12:54:43;3.10;59.30
6824;DHT22;58633;49.470;11.004;2024-01-16T12:57:09;3.30;59.80
6824;DHT22;58633;49.470;11.004;2024-01-16T12:59:39;3.30;60.00
6824;DHT22;58633;49.470;11.004;2024-01-16T13:02:05;4.30;59.80
6824;DHT22;58633;49.470;11.004;2024-01-16T13:04:31;3.40;59.40
6824;DHT22;58633;49.470;11.004;2024-01-16T13:07:03;4.80;60.40
6824;DHT22;58633;49.470;11.004;2024-01-16T13:09:29;3.40;59.10
6824;DHT22;58633;49.470;11.004;2024-01-16T13:11:55;3.60;58.90
6824;DHT22;58633;49.470;11.004;2024-01-16T13:14:24;5.90;60.40
6824;DHT22;58633;49.470;11.004;2024-01-16T13:16:51;3.50;58.30
6824;DHT22;58633;49.470;11.004;2024-01-16T13:19:21;3.40;58.50
6824;DHT22;58633;49.470;11.004;2024-01-16T13:21:46;3.50;58.20
6824;DHT22;58633;49.470;11.004;2024-01-16T13:24:12;3.50;58.60
6824;DHT22;58633;49.470;11.004;2024-01-16T13:26:42;3.40;58.40
6824;DHT22;58633;49.470;11.004;2024-01-16T13:29:08;4.00;58.40
6824;DHT22;58633;49.470;11.004;2024-01-16T13:31:34;3.60;58.40
6824;DHT22;58633;49.470;11.004;2024-01-16T13:34:00;3.50;57.80
6824;DHT22;58633;49.470;11.004;2024-01-16T13:38:52;3.50;57.40
6824;DHT22;58633;49.470;11.004;2024-01-16T13:41:17;3.50;57.80
6824;DHT22;58633;49.470;11.004;2024-01-16T13:43:43;3.40;57.80
6824;DHT22;58633;49.470;11.004;2024-01-16T13:46:08;3.50;57.40
6824;DHT22;58633;49.470;11.004;2024-01-16T13:48:35;3.80;58.00
6824;DHT22;58633;49.470;11.004;2024-01-16T13:51:01;4.00;57.70
6824;DHT22;58633;49.470;11.004;2024-01-16T13:53:26;2.50;56.10
6824;DHT22;58633;49.470;11.004;2024-01-16T13:55:52;4.20;57.50
6824;DHT22;58633;49.470;11.004;2024-01-16T13:58:18;4.30;57.50
6824;DHT22;58633;49.470;11.004;2024-01-16T14:00:44;4.40;57.10
6824;DHT22;58633;49.470;11.004;2024-01-16T14:03:09;4.40;57.10
6824;DHT22;58633;49.470;11.004;2024-01-16T14:05:35;4.40;57.00
6824;DHT22;58633;49.470;11.004;2024-01-16T14:08:01;4.50;57.20
6824;DHT22;58633;49.470;11.004;2024-01-16T14:10:27;4.30;57.20
6824;DHT22;58633;49.470;11.004;2024-01-16T14:12:53;4.20;56.40
6824;DHT22;58633;49.470;11.004;2024-01-16T14:15:20;4.30;56.80
6824;DHT22;58633;49.470;11.004;2024-01-16T14:17:50;4.30;56.60
6824;DHT22;58633;49.470;11.004;2024-01-16T14:20:17;4.50;56.80
6824;DHT22;58633;49.470;11.004;2024-01-16T14:22:43;4.50;56.70
6824;DHT22;58633;49.470;11.004;2024-01-16T14:25:10;4.50;56.90
6824;DHT22;58633;49.470;11.004;2024-01-16T14:27:42;4.20;56.20
6824;DHT22;58633;49.470;11.004;2024-01-16T14:30:13;4.00;56.10
6824;DHT22;58633;49.470;11.004;2024-01-16T14:32:40;3.90;56.30
6824;DHT22;58633;49.470;11.004;2024-01-16T14:35:07;3.90;56.50
6824;DHT22;58633;49.470;11.004;2024-01-16T14:37:35;3.70;56.30
6824;DHT22;58633;49.470;11.004;2024-01-16T14:40:02;3.50;56.50
6824;DHT22;58633;49.470;11.004;2024-01-16T14:42:28;3.50;56.80
6824;DHT22;58633;49.470;11.004;2024-01-16T14:44:54;3.80;57.00
6824;DHT22;58633;49.470;11.004;2024-01-16T14:47:20;3.40;57.00
6824;DHT22;58633;49.470;11.004;2024-01-16T14:49:46;2.80;56.40
6824;DHT22;58633;49.470;11.004;2024-01-16T14:54:38;3.20;57.00
6824;DHT22;58633;49.470;11.004;2024-01-16T14:57:05;3.00;57.10
6824;DHT22;58633;49.470;11.004;2024-01-16T14:59:32;2.90;57.40
6824;DHT22;58633;49.470;11.004;2024-01-16T15:01:58;3.00;57.70
6824;DHT22;58633;49.470;11.004;2024-01-16T15:06:49;2.90;57.20
6824;DHT22;58633;49.470;11.004;2024-01-16T15:09:18;2.20;56.60
6824;DHT22;58633;49.470;11.004;2024-01-16T15:11:43;2.70;57.40
6824;DHT22;58633;49.470;11.004;2024-01-16T15:14:11;2.80;57.00
6824;DHT22;58633;49.470;11.004;2024-01-16T15:16:37;3.80;58.00
6824;DHT22;58633;49.470;11.004;2024-01-16T15:19:02;2.10;57.00
6824;DHT22;58633;49.470;11.004;2024-01-16T15:21:28;2.90;57.60
6824;DHT22;58633;49.470;11.004;2024-01-16T15:23:53;2.20;57.00
6824;DHT22;58633;49.470;11.004;2024-01-16T15:26:19;2.20;57.20
6824;DHT22;58633;49.470;11.004;2024-01-16T15:33:38;2.50;57.60
6824;DHT22;58633;49.470;11.004;2024-01-16T15:36:04;2.90;58.10
6824;DHT22;58633;49.470;11.004;2024-01-16T15:40:57;2.30;57.20
6824;DHT22;58633;49.470;11.004;2024-01-16T15:45:48;2.30;57.10
6824;DHT22;58633;49.470;11.004;2024-01-16T15:48:14;2.70;59.90
6824;DHT22;58633;49.470;11.004;2024-01-16T16:00:24;1.50;59.40
6824;DHT22;58633;49.470;11.004;2024-01-16T16:02:50;1.40;59.90
6824;DHT22;58633;49.470;11.004;2024-01-16T16:10:09;1.80;60.70
6824;DHT22;58633;49.470;11.004;2024-01-16T16:12:34;2.10;61.50
6824;DHT22;58633;49.470;11.004;2024-01-16T16:19:52;1.70;60.70
6824;DHT22;58633;49.470;11.004;2024-01-16T16:27:27;1.80;62.80
6824;DHT22;58633;49.470;11.004;2024-01-16T16:29:55;1.30;59.90
6824;DHT22;58633;49.470;11.004;2024-01-16T16:34:47;3.30;63.30
6824;DHT22;58633;49.470;11.004;2024-01-16T16:39:40;1.60;58.40
6824;DHT22;58633;49.470;11.004;2024-01-16T17:26:05;1.40;65.00
6824;DHT22;58633;49.470;11.004;2024-01-16T17:30:58;1.30;59.40
6824;DHT22;58633;49.470;11.004;2024-01-16T17:33:24;1.60;63.00
6824;DHT22;58633;49.470;11.004;2024-01-16T17:43:11;0.80;64.60
6824;DHT22;58633;49.470;11.004;2024-01-16T17:45:37;1.00;64.70
6824;DHT22;58633;49.470;11.004;2024-01-16T17:50:31;2.30;65.60
6824;DHT22;58633;49.470;11.004;2024-01-16T17:52:58;2.10;65.70
6824;DHT22;58633;49.470;11.004;2024-01-16T17:55:31;1.00;59.90
6824;DHT22;58633;49.470;11.004;2024-01-16T18:05:19;1.80;66.20
6824;DHT22;58633;49.470;11.004;2024-01-16T18:15:09;0.70;63.20
6824;DHT22;58633;49.470;11.004;2024-01-16T18:17:41;1.20;67.20
6824;DHT22;58633;49.470;11.004;2024-01-16T18:20:10;1.30;67.80
6824;DHT22;58633;49.470;11.004;2024-01-16T18:22:37;0.60;60.20
6824;DHT22;58633;49.470;11.004;2024-01-16T18:25:06;0.50;60.40
6824;DHT22;58633;49.470;11.004;2024-01-16T18:27:36;1.30;67.80
6824;DHT22;58633;49.470;11.004;2024-01-16T18:30:03;0.60;61.00
6824;DHT22;58633;49.470;11.004;2024-01-16T18:32:32;1.20;68.70
6824;DHT22;58633;49.470;11.004;2024-01-16T18:34:58;0.00;66.40
6824;DHT22;58633;49.470;11.004;2024-01-16T18:44:44;0.50;61.30